Time;durP1;ratioP1;P1;durP2;ratioP2;P2;SDS_P1;SDS_P2;PMS_P1;PMS_P2;Temp;Humidity;BMP_temperature;BMP_pressure;BME280_temperature;BME280_humidity;BME280_pressure;Samples;Min_cycle;Max_cycle;Signal;HPM_P1;HPM_P2
2023/04/17 00:00:10;;;;;;;36.33;22.35;;;8.00;99.90;;;;;;5094304;28;20074;-50
2023/04/17 00:02:39;;;;;;;45.72;24.05;;;6.90;99.90;;;;;;5093269;28;20562;-51
2023/04/17 00:05:08;;;;;;;45.45;24.75;;;7.10;99.90;;;;;;5094289;27;21459;-49
2023/04/17 00:07:40;;;;;;;38.72;22.73;;;7.10;99.90;;;;;;5094750;27;20039;-50
2023/04/17 00:10:08;;;;;;;;;;;8.10;99.90;;;;;;5094976;27;20126;-50
2023/04/17 00:12:35;;;;;;;48.33;23.65;;;7.00;99.90;;;;;;5094344;28;20036;-49
2023/04/17 00:15:00;;;;;;;36.20;22.27;;;7.10;99.90;;;;;;5093717;27;20039;-49
2023/04/17 00:17:26;;;;;;;45.60;26.33;;;7.20;99.90;;;;;;5074488;28;20534;-47
2023/04/17 00:19:52;;;;;;;44.83;23.75;;;7.00;99.90;;;;;;5094096;28;20054;-48
2023/04/17 00:22:18;;;;;;;42.83;24.83;;;7.00;99.90;;;;;;5094181;28;20054;-51
2023/04/17 00:24:43;;;;;;;46.60;24.70;;;7.00;99.90;;;;;;5092430;28;20449;-50
2023/04/17 00:27:09;;;;;;;46.10;26.98;;;6.90;99.90;;;;;;5093358;28;20044;-47
2023/04/17 00:29:36;;;;;;;44.50;25.85;;;7.00;99.90;;;;;;5094041;27;20051;-49
2023/04/17 00:32:03;;;;;;;49.10;26.33;;;7.00;99.90;;;;;;5094153;28;20100;-51
2023/04/17 00:34:28;;;;;;;46.42;25.35;;;7.10;99.90;;;;;;5092221;27;20051;-52
2023/04/17 00:36:54;;;;;;;45.92;26.98;;;7.10;99.90;;;;;;5092936;28;20054;-51
2023/04/17 00:39:20;;;;;;;48.15;27.42;;;7.10;99.90;;;;;;5093966;28;20043;-53
2023/04/17 00:41:46;;;;;;;42.85;26.20;;;7.20;99.90;;;;;;5093369;28;20096;-51
2023/04/17 00:44:12;;;;;;;56.53;28.58;;;7.20;99.90;;;;;;5096724;27;20039;-53
2023/04/17 00:46:37;;;;;;;47.47;27.02;;;7.00;99.90;;;;;;5097310;27;20048;-51
2023/04/17 00:49:03;;;;;;;47.55;26.52;;;7.00;99.90;;;;;;5096343;27;20036;-52
2023/04/17 00:51:30;;;;;;;48.65;27.17;;;7.60;99.90;;;;;;5096855;27;20035;-52
2023/04/17 00:53:57;;;;;;;54.88;28.95;;;8.90;99.90;;;;;;5096698;27;20555;-49
2023/04/17 00:56:23;;;;;;;52.28;29.60;;;6.90;99.90;;;;;;5097851;27;20228;-52
2023/04/17 00:58:50;;;;;;;53.58;28.90;;;7.10;99.90;;;;;;5095910;27;20048;-53
2023/04/17 01:01:16;;;;;;;44.50;27.25;;;7.10;99.90;;;;;;5097337;27;20031;-53
2023/04/17 01:03:43;;;;;;;45.38;27.30;;;7.00;99.90;;;;;;5095583;27;20051;-52
2023/04/17 01:06:09;;;;;;;50.58;28.88;;;5.80;99.90;;;;;;5098175;27;20039;-53
2023/04/17 01:08:42;;;;;;;55.58;30.20;;;7.10;99.90;;;;;;5096188;27;20047;-51
2023/04/17 01:11:09;;;;;;;54.50;30.00;;;6.10;99.90;;;;;;5097515;27;20035;-53
2023/04/17 01:13:44;;;;;;;53.35;30.13;;;7.10;99.90;;;;;;5077770;27;20175;-53
2023/04/17 01:16:10;;;;;;;49.05;30.25;;;7.10;99.90;;;;;;5096784;27;20043;-52
2023/04/17 01:18:36;;;;;;;53.58;30.75;;;7.10;99.90;;;;;;5096112;27;20063;-54
2023/04/17 01:21:02;;;;;;;50.03;29.80;;;8.80;99.90;;;;;;5097144;27;20492;-53
2023/04/17 01:23:28;;;;;;;52.92;30.15;;;7.20;99.90;;;;;;5097249;27;20039;-52
2023/04/17 01:25:54;;;;;;;61.42;31.90;;;7.40;99.90;;;;;;5095311;27;20464;-53
2023/04/17 01:28:20;;;;;;;56.72;30.73;;;6.90;99.90;;;;;;5095420;27;20122;-53
2023/04/17 01:30:45;;;;;;;55.58;29.27;;;7.10;99.90;;;;;;5079726;28;20039;-53
2023/04/17 01:33:11;;;;;;;50.28;28.48;;;7.10;99.90;;;;;;5079283;28;20301;-54
2023/04/17 01:35:37;;;;;;;49.53;26.33;;;7.10;99.90;;;;;;5096197;27;20043;-53
2023/04/17 01:38:02;;;;;;;43.85;27.38;;;7.20;99.90;;;;;;5096528;27;20031;-51
2023/04/17 01:40:28;;;;;;;48.35;26.08;;;7.00;99.90;;;;;;5097115;27;20579;-52
2023/04/17 01:42:54;;;;;;;41.38;25.40;;;7.00;99.90;;;;;;5078100;28;20039;-53
2023/04/17 01:45:20;;;;;;;49.78;26.80;;;7.00;99.90;;;;;;5096272;27;20573;-52
2023/04/17 01:47:46;;;;;;;58.53;27.13;;;7.10;99.90;;;;;;5095474;27;20043;-50
2023/04/17 01:50:12;;;;;;;66.60;28.80;;;6.90;99.90;;;;;;5096199;27;20055;-52
2023/04/17 01:52:38;;;;;;;41.60;24.17;;;6.80;99.90;;;;;;5078543;28;20112;-54
2023/04/17 01:55:04;;;;;;;39.17;23.88;;;7.00;99.90;;;;;;5095310;27;20137;-52
2023/04/17 01:57:32;;;;;;;73.75;26.90;;;6.90;99.90;;;;;;5095744;27;20065;-50
2023/04/17 01:59:57;;;;;;;64.60;23.67;;;6.90;99.90;;;;;;5095040;27;20401;-50
2023/04/17 02:02:23;;;;;;;42.92;22.42;;;9.00;99.90;;;;;;5097248;27;20043;-54
2023/04/17 02:04:49;;;;;;;43.33;22.63;;;7.80;99.90;;;;;;5094134;27;20047;-52
2023/04/17 02:07:15;;;;;;;51.80;23.13;;;6.80;99.90;;;;;;5095670;27;20043;-52
2023/04/17 02:09:41;;;;;;;45.80;23.73;;;7.20;99.90;;;;;;5095058;27;21748;-54
2023/04/17 02:12:07;;;;;;;60.65;24.92;;;7.00;99.90;;;;;;5095841;27;20043;-53
2023/04/17 02:14:32;;;;;;;56.75;23.02;;;7.00;99.90;;;;;;5095772;27;20039;-53
2023/04/17 02:16:58;;;;;;;49.15;23.00;;;6.80;99.90;;;;;;5076191;28;20711;-53
2023/04/17 02:19:24;;;;;;;38.97;24.08;;;6.90;99.90;;;;;;5094848;27;20126;-53
2023/04/17 02:21:50;;;;;;;42.42;24.23;;;6.80;99.90;;;;;;5095370;27;20119;-51
2023/04/17 02:24:15;;;;;;;42.13;23.63;;;6.90;99.90;;;;;;5095113;27;20039;-53
2023/04/17 02:26:41;;;;;;;40.78;24.00;;;7.10;99.90;;;;;;5095094;27;20043;-49
2023/04/17 02:29:07;;;;;;;49.35;25.38;;;6.90;99.90;;;;;;5077788;27;20054;-54
2023/04/17 02:31:33;;;;;;;50.40;24.42;;;7.30;99.90;;;;;;5095149;27;20040;-52
2023/04/17 02:33:58;;;;;;;51.38;25.00;;;6.80;99.90;;;;;;5094059;27;20071;-50
2023/04/17 02:36:25;;;;;;;53.35;23.90;;;6.80;99.90;;;;;;5094389;27;21628;-53
2023/04/17 02:38:50;;;;;;;43.63;22.95;;;6.80;99.90;;;;;;5097698;27;20043;-50
2023/04/17 02:41:16;;;;;;;55.97;23.48;;;7.70;99.90;;;;;;5095608;27;20388;-52
2023/04/17 02:43:42;;;;;;;61.22;24.20;;;6.60;99.90;;;;;;5095597;28;20036;-52
2023/04/17 02:46:08;;;;;;;62.75;25.67;;;8.70;99.90;;;;;;5096154;27;20512;-54
2023/04/17 02:48:33;;;;;;;69.25;26.27;;;7.00;99.90;;;;;;5095937;27;20039;-49
2023/04/17 02:50:59;;;;;;;41.55;24.15;;;6.80;99.90;;;;;;5094511;27;20043;-52
2023/04/17 02:53:25;;;;;;;37.17;22.38;;;6.60;99.90;;;;;;5093551;27;20038;-47
2023/04/17 02:55:50;;;;;;;60.95;25.70;;;6.80;99.90;;;;;;5095426;27;20081;-52
2023/04/17 02:58:16;;;;;;;55.90;26.45;;;8.70;99.90;;;;;;5075188;28;20043;-49
2023/04/17 03:00:42;;;;;;;78.57;28.92;;;6.90;99.90;;;;;;5095218;27;20848;-51
2023/04/17 03:03:08;;;;;;;55.95;25.48;;;6.80;99.90;;;;;;5096678;27;20036;-49
2023/04/17 03:05:34;;;;;;;52.95;25.90;;;6.80;99.90;;;;;;5093384;28;20494;-47
2023/04/17 03:08:00;;;;;;;49.92;25.60;;;6.70;99.90;;;;;;5093918;27;20579;-53
2023/04/17 03:10:26;;;;;;;46.92;23.40;;;6.80;99.90;;;;;;5094018;27;20043;-50
2023/04/17 03:12:52;;;;;;;48.67;23.50;;;7.00;99.90;;;;;;5094361;27;20115;-53
2023/04/17 03:15:18;;;;;;;34.47;21.23;;;7.30;99.90;;;;;;5094816;27;20055;-49
2023/04/17 03:17:43;;;;;;;31.10;20.17;;;6.90;99.90;;;;;;5094341;27;20039;-47
2023/04/17 03:20:09;;;;;;;47.92;22.88;;;6.80;99.90;;;;;;5093691;27;20463;-51
2023/04/17 03:22:35;;;;;;;43.10;21.42;;;6.90;99.90;;;;;;5075558;28;21654;-53
2023/04/17 03:25:01;;;;;;;36.40;21.48;;;6.70;99.90;;;;;;5094304;28;20051;-50
2023/04/17 03:27:27;;;;;;;68.20;23.35;;;6.80;99.90;;;;;;5094183;27;20031;-50
2023/04/17 03:29:55;;;;;;;64.03;22.38;;;6.80;99.90;;;;;;5093792;28;20115;-50
2023/04/17 03:32:20;;;;;;;85.40;24.48;;;6.70;99.90;;;;;;5095961;27;20048;-49
2023/04/17 03:34:46;;;;;;;142.52;24.77;;;7.60;99.90;;;;;;5094375;27;20062;-51
2023/04/17 03:37:12;;;;;;;142.25;27.27;;;8.30;99.90;;;;;;5093551;27;20039;-51
2023/04/17 03:39:37;;;;;;;80.00;26.23;;;6.60;99.90;;;;;;5094061;28;20495;-48
2023/04/17 03:42:03;;;;;;;64.43;24.20;;;6.70;99.90;;;;;;5076065;28;20264;-48
2023/04/17 03:44:29;;;;;;;103.18;27.15;;;6.80;99.90;;;;;;5074754;28;20518;-48
2023/04/17 03:46:55;;;;;;;112.70;27.98;;;6.80;99.90;;;;;;5094414;27;20040;-48
2023/04/17 03:49:21;;;;;;;121.15;27.38;;;6.70;99.90;;;;;;5093088;27;20112;-51
2023/04/17 03:51:47;;;;;;;132.30;29.85;;;6.60;99.90;;;;;;5093443;27;20047;-51
2023/04/17 03:54:12;;;;;;;241.77;29.80;;;6.50;99.90;;;;;;5075056;28;20043;-52
2023/04/17 03:56:38;;;;;;;260.08;30.58;;;8.10;99.90;;;;;;5093436;28;20050;-49
2023/04/17 03:59:04;;;;;;;381.33;35.38;;;6.60;99.90;;;;;;5094328;28;20073;-52
2023/04/17 04:01:31;;;;;;;218.30;30.23;;;6.50;99.90;;;;;;5076711;27;20035;-50
2023/04/17 04:03:58;;;;;;;80.00;26.60;;;6.50;99.90;;;;;;5093516;27;20165;-54
2023/04/17 04:06:23;;;;;;;242.25;29.95;;;6.40;99.90;;;;;;5094683;27;20107;-52
2023/04/17 04:08:49;;;;;;;261.02;29.08;;;6.40;99.90;;;;;;5093903;28;20087;-50
2023/04/17 04:11:15;;;;;;;100.15;26.45;;;7.40;99.90;;;;;;5094086;28;20916;-52
2023/04/17 04:13:41;;;;;;;147.25;27.95;;;6.40;99.90;;;;;;5093636;27;20055;-53
2023/04/17 04:16:07;;;;;;;110.00;26.73;;;6.30;99.90;;;;;;5093089;27;20040;-52
2023/04/17 04:18:33;;;;;;;294.90;33.40;;;6.40;99.90;;;;;;5093646;27;20138;-53
2023/04/17 04:20:59;;;;;;;281.75;33.65;;;6.20;99.90;;;;;;5076524;28;20059;-52
2023/04/17 04:23:26;;;;;;;224.65;33.25;;;6.50;99.90;;;;;;5093732;28;20040;-50
2023/04/17 04:25:55;;;;;;;123.13;28.75;;;6.50;99.90;;;;;;5075900;28;20073;-51
2023/04/17 04:28:23;;;;;;;406.33;40.00;;;8.40;99.90;;;;;;5093137;28;20055;-53
2023/04/17 04:30:49;;;;;;;352.95;38.83;;;6.40;99.90;;;;;;5092611;27;20039;-53
2023/04/17 04:33:19;;;;;;;132.65;30.80;;;6.40;99.90;;;;;;5076757;28;20097;-49
2023/04/17 04:35:48;;;;;;;172.75;33.08;;;6.40;99.90;;;;;;5093944;28;20079;-52
2023/04/17 04:38:15;;;;;;;201.98;33.70;;;6.50;99.90;;;;;;5074331;28;20134;-51
2023/04/17 04:40:44;;;;;;;109.53;28.80;;;6.30;99.90;;;;;;5075816;28;20131;-52
2023/04/17 04:43:10;;;;;;;193.57;31.67;;;6.40;99.90;;;;;;5092393;28;20051;-51
2023/04/17 04:45:36;;;;;;;141.57;29.88;;;6.70;99.90;;;;;;5074683;28;20051;-50
2023/04/17 04:48:02;;;;;;;249.68;33.33;;;6.40;99.90;;;;;;5093272;28;20039;-54
2023/04/17 04:50:28;;;;;;;95.82;29.17;;;6.50;99.90;;;;;;5091911;28;20512;-52
2023/04/17 04:52:53;;;;;;;308.15;37.75;;;6.50;99.90;;;;;;5093233;28;20046;-50
2023/04/17 04:55:20;;;;;;;274.00;36.03;;;6.50;99.90;;;;;;5092534;28;20176;-51
2023/04/17 04:57:46;;;;;;;173.40;30.67;;;6.50;99.90;;;;;;5092864;28;20056;-53
2023/04/17 05:00:13;;;;;;;126.55;29.52;;;6.70;99.90;;;;;;5092685;28;20059;-51
2023/04/17 05:02:38;;;;;;;263.70;33.78;;;6.40;99.90;;;;;;5075011;28;20048;-53
2023/04/17 05:05:06;;;;;;;242.35;31.35;;;6.50;99.90;;;;;;5092005;28;20069;-49
2023/04/17 05:07:32;;;;;;;82.55;28.25;;;6.40;99.90;;;;;;5091500;28;20051;-48
2023/04/17 05:09:58;;;;;;;147.75;31.30;;;6.50;99.90;;;;;;5092952;28;20392;-52
2023/04/17 05:12:23;;;;;;;182.05;31.85;;;6.40;99.90;;;;;;5072863;28;20466;-49
2023/04/17 05:14:49;;;;;;;131.32;31.95;;;6.30;99.90;;;;;;5074101;28;20035;-50
2023/04/17 05:17:15;;;;;;;120.68;29.83;;;6.50;99.90;;;;;;5091712;28;20864;-52
2023/04/17 05:19:40;;;;;;;130.98;31.05;;;6.50;99.90;;;;;;5092124;28;20508;-57
2023/04/17 05:22:06;;;;;;;185.65;35.25;;;6.50;99.90;;;;;;5090820;28;20046;-52
2023/04/17 05:24:32;;;;;;;163.43;32.58;;;6.50;99.90;;;;;;5073824;28;20036;-50
2023/04/17 05:26:58;;;;;;;91.55;28.98;;;6.50;99.90;;;;;;5092620;28;20040;-54
2023/04/17 05:29:24;;;;;;;155.10;32.35;;;6.50;99.90;;;;;;5094034;27;20043;-51
2023/04/17 05:31:50;;;;;;;68.95;29.05;;;6.50;99.90;;;;;;5078628;27;20039;-51
2023/04/17 05:34:16;;;;;;;83.20;30.38;;;6.50;99.90;;;;;;5096408;27;20058;-51
2023/04/17 05:36:41;;;;;;;75.50;29.73;;;6.60;99.90;;;;;;5096820;27;20671;-55
2023/04/17 05:39:07;;;;;;;99.03;30.98;;;6.60;99.90;;;;;;5096587;27;20040;-53
2023/04/17 05:41:33;;;;;;;71.13;30.50;;;6.50;99.90;;;;;;5097110;27;20156;-54
2023/04/17 05:43:58;;;;;;;69.25;30.55;;;6.70;99.90;;;;;;5095538;27;20047;-54
2023/04/17 05:46:24;;;;;;;74.93;30.77;;;6.70;99.90;;;;;;5097015;27;20603;-51
2023/04/17 05:48:50;;;;;;;191.05;34.90;;;6.70;99.90;;;;;;5096230;27;20081;-50
2023/04/17 05:51:15;;;;;;;149.07;32.45;;;6.70;99.90;;;;;;5059577;28;20104;-53
2023/04/17 05:53:43;;;;;;;78.13;30.23;;;;;;;;;;5096473;27;20043;-51
2023/04/17 05:56:10;;;;;;;91.13;36.53;;;6.80;99.90;;;;;;5095940;27;21255;-53
2023/04/17 05:58:36;;;;;;;97.55;34.65;;;6.90;99.90;;;;;;5095737;27;20142;-54
2023/04/17 06:01:04;;;;;;;62.40;32.72;;;6.90;99.90;;;;;;5096319;27;20101;-52
2023/04/17 06:03:31;;;;;;;67.75;31.92;;;7.00;99.90;;;;;;5096153;27;20359;-54
2023/04/17 06:05:57;;;;;;;62.90;32.85;;;6.90;99.90;;;;;;5096331;27;20108;-53
2023/04/17 06:08:23;;;;;;;62.13;31.95;;;7.00;99.90;;;;;;5095979;27;20252;-53
2023/04/17 06:10:51;;;;;;;99.13;32.28;;;7.10;99.90;;;;;;5095402;27;20164;-52
2023/04/17 06:13:17;;;;;;;59.75;31.33;;;7.20;99.90;;;;;;5095662;27;20075;-53
2023/04/17 06:15:43;;;;;;;57.03;28.00;;;7.10;99.90;;;;;;5096155;27;20303;-53
2023/04/17 06:18:08;;;;;;;84.05;29.92;;;7.30;99.90;;;;;;5060520;28;20070;-51
2023/04/17 06:20:34;;;;;;;60.67;28.15;;;7.30;99.90;;;;;;5095002;27;20699;-54
2023/04/17 06:23:00;;;;;;;62.30;28.48;;;7.30;99.90;;;;;;5095010;27;20196;-52
2023/04/17 06:25:26;;;;;;;72.30;27.52;;;7.30;99.90;;;;;;5095177;27;20092;-54
2023/04/17 06:27:52;;;;;;;50.22;25.60;;;7.50;99.90;;;;;;5095137;27;20044;-52
2023/04/17 06:30:17;;;;;;;52.83;25.88;;;7.50;99.90;;;;;;5094887;27;20105;-54
2023/04/17 06:32:43;;;;;;;43.25;25.00;;;7.50;99.90;;;;;;5078071;27;20050;-52
2023/04/17 06:35:12;;;;;;;44.30;24.23;;;7.70;99.90;;;;;;5095888;27;20058;-54
2023/04/17 06:37:37;;;;;;;49.30;25.38;;;9.50;99.90;;;;;;5095698;27;20043;-54
2023/04/17 06:40:04;;;;;;;44.25;24.33;;;7.70;99.90;;;;;;5094979;27;20038;-54
2023/04/17 06:42:32;;;;;;;38.70;23.00;;;8.00;99.90;;;;;;5095152;27;20120;-52
2023/04/17 06:44:58;;;;;;;41.75;23.38;;;8.00;99.90;;;;;;5096379;27;20156;-52
2023/04/17 06:47:24;;;;;;;39.95;24.30;;;7.90;99.90;;;;;;5097011;27;20032;-54
2023/04/17 06:49:50;;;;;;;37.35;23.25;;;7.90;99.90;;;;;;5094654;27;20055;-53
2023/04/17 06:52:18;;;;;;;37.28;23.70;;;8.00;99.90;;;;;;5095273;28;20488;-54
2023/04/17 06:54:44;;;;;;;37.47;23.67;;;8.10;99.90;;;;;;5077073;28;20063;-53
2023/04/17 06:57:11;;;;;;;36.97;23.73;;;8.20;99.90;;;;;;5078609;28;20062;-54
2023/04/17 06:59:37;;;;;;;39.20;24.35;;;8.40;99.90;;;;;;5094725;27;20071;-55
2023/04/17 07:02:03;;;;;;;45.63;29.83;;;8.30;99.90;;;;;;5095496;27;20043;-55
2023/04/17 07:04:31;;;;;;;41.63;25.02;;;8.40;99.90;;;;;;5094851;27;20957;-55
2023/04/17 07:06:57;;;;;;;43.22;25.95;;;9.30;99.90;;;;;;5076597;28;20047;-56
2023/04/17 07:09:24;;;;;;;38.53;25.10;;;8.30;99.90;;;;;;5094787;27;20031;-54
2023/04/17 07:11:50;;;;;;;36.22;25.50;;;9.50;99.90;;;;;;5093840;27;20047;-56
2023/04/17 07:14:16;;;;;;;39.90;24.73;;;8.50;99.90;;;;;;5094863;27;20577;-54
2023/04/17 07:16:41;;;;;;;40.42;26.27;;;8.50;99.90;;;;;;5096355;27;20055;-53
2023/04/17 07:19:07;;;;;;;35.20;25.50;;;8.60;99.90;;;;;;5076577;27;20047;-55
2023/04/17 07:21:33;;;;;;;36.30;21.88;;;8.80;99.90;;;;;;5095024;27;20533;-55
2023/04/17 07:23:59;;;;;;;30.25;22.05;;;9.20;99.90;;;;;;5094040;28;20036;-54
2023/04/17 07:26:25;;;;;;;32.17;22.98;;;8.60;99.90;;;;;;5094038;27;20043;-55
2023/04/17 07:28:51;;;;;;;28.63;21.17;;;8.80;99.90;;;;;;5075313;27;20042;-55
2023/04/17 07:31:17;;;;;;;30.73;22.33;;;8.80;99.90;;;;;;5093024;28;20538;-54
2023/04/17 07:33:42;;;;;;;31.15;23.55;;;9.00;99.90;;;;;;5077742;28;20043;-54
2023/04/17 07:36:10;;;;;;;32.80;24.75;;;8.90;99.90;;;;;;5075595;28;20175;-55
2023/04/17 07:38:36;;;;;;;32.13;25.00;;;8.90;99.90;;;;;;5093799;27;20054;-55
2023/04/17 07:41:02;;;;;;;34.70;26.55;;;9.00;99.90;;;;;;5094929;28;20039;-54
2023/04/17 07:43:28;;;;;;;33.90;26.98;;;8.90;99.90;;;;;;5093536;27;20035;-55
2023/04/17 07:45:54;;;;;;;33.28;27.45;;;9.20;99.90;;;;;;5093775;27;20614;-54
2023/04/17 07:48:21;;;;;;;31.58;25.90;;;9.20;99.90;;;;;;5093969;27;20938;-55
2023/04/17 07:50:48;;;;;;;29.00;22.83;;;9.20;99.90;;;;;;5096148;27;20123;-54
2023/04/17 07:53:14;;;;;;;29.23;24.50;;;9.30;99.90;;;;;;5094330;27;20043;-57
2023/04/17 07:55:39;;;;;;;25.63;21.35;;;9.30;99.90;;;;;;5094427;27;20050;-53
2023/04/17 07:58:05;;;;;;;29.40;23.20;;;9.60;99.90;;;;;;5093272;27;20662;-51
2023/04/17 08:00:32;;;;;;;27.80;22.92;;;9.60;99.90;;;;;;5094109;27;20410;-53
2023/04/17 08:02:58;;;;;;;27.13;21.95;;;9.80;99.90;;;;;;5094758;27;20753;-52
2023/04/17 08:05:24;;;;;;;30.40;23.05;;;9.80;99.90;;;;;;5094079;28;20036;-54
2023/04/17 08:07:50;;;;;;;27.05;22.77;;;10.00;99.90;;;;;;5093945;27;20047;-55
2023/04/17 08:10:16;;;;;;;26.83;22.58;;;9.90;99.90;;;;;;5094005;27;20108;-53
2023/04/17 08:12:41;;;;;;;26.25;22.45;;;10.20;99.90;;;;;;5092421;28;20514;-55
2023/04/17 08:15:08;;;;;;;29.38;23.77;;;10.20;99.90;;;;;;5093075;28;20055;-51
2023/04/17 08:17:34;;;;;;;24.42;20.92;;;10.40;99.90;;;;;;5093072;27;20043;-54
2023/04/17 08:20:01;;;;;;;26.13;22.10;;;10.30;99.90;;;;;;5093432;27;20044;-56
2023/04/17 08:22:27;;;;;;;27.38;21.75;;;10.30;99.90;;;;;;5093550;28;20116;-53
2023/04/17 08:24:56;;;;;;;23.63;21.00;;;10.50;99.90;;;;;;5073910;28;20138;-55
2023/04/17 08:27:25;;;;;;;24.63;21.05;;;10.60;99.90;;;;;;5091716;27;20036;-55
2023/04/17 08:29:52;;;;;;;23.55;20.02;;;10.70;99.90;;;;;;5092220;28;20044;-54
2023/04/17 08:32:20;;;;;;;24.50;21.08;;;10.60;99.90;;;;;;5093964;27;20070;-54
2023/04/17 08:34:45;;;;;;;23.50;19.77;;;10.70;99.90;;;;;;5093415;28;21695;-56
2023/04/17 08:37:13;;;;;;;24.35;20.70;;;10.60;99.90;;;;;;5094201;28;20035;-53
2023/04/17 08:39:39;;;;;;;25.42;22.17;;;10.70;99.90;;;;;;5092973;28;20131;-54
2023/04/17 08:42:09;;;;;;;26.88;22.52;;;10.90;99.90;;;;;;5092745;28;20054;-55
2023/04/17 08:44:35;;;;;;;23.45;20.17;;;11.00;99.90;;;;;;5091218;28;20047;-55
2023/04/17 08:47:03;;;;;;;24.60;20.85;;;11.60;99.90;;;;;;5074590;28;20081;-54
2023/04/17 08:49:30;;;;;;;21.65;19.35;;;12.20;99.90;;;;;;5092739;28;20063;-55
2023/04/17 08:51:55;;;;;;;22.95;20.05;;;12.80;99.90;;;;;;5059046;28;20044;-55
2023/04/17 08:54:21;;;;;;;23.30;20.33;;;13.30;99.90;;;;;;5094088;28;20406;-55
2023/04/17 08:56:47;;;;;;;22.73;20.20;;;13.40;99.90;;;;;;5074812;28;20079;-55
2023/04/17 08:59:14;;;;;;;23.05;20.63;;;13.90;99.90;;;;;;5093094;28;20886;-56
2023/04/17 09:02:05;;;;;;;21.73;19.27;;;13.70;99.90;;;;;;5094598;28;20117;-54
2023/04/17 09:04:38;;;;;;;23.20;19.88;;;14.10;99.90;;;;;;5098035;27;20035;-55
2023/04/17 09:07:05;;;;;;;20.48;18.38;;;14.30;99.90;;;;;;5096549;27;22113;-55
2023/04/17 09:09:48;;;;;;;20.45;18.25;;;14.00;99.90;;;;;;5098450;27;20039;-55
2023/04/17 09:12:14;;;;;;;21.80;18.08;;;13.90;99.90;;;;;;5096521;27;20043;-55
2023/04/17 09:14:40;;;;;;;21.60;19.38;;;13.90;99.90;;;;;;5097396;28;20046;-54
2023/04/17 09:17:06;;;;;;;21.65;18.25;;;13.80;99.90;;;;;;5077987;28;20031;-55
2023/04/17 09:19:31;;;;;;;18.40;16.48;;;13.60;99.90;;;;;;5096779;27;20039;-53
2023/04/17 09:22:16;;;;;;;20.08;17.08;;;13.40;99.90;;;;;;5096396;27;20047;-54
2023/04/17 09:24:43;;;;;;;19.77;17.70;;;13.60;99.90;;;;;;5096663;28;20055;-54
2023/04/17 09:27:27;;;;;;;18.52;16.60;;;13.60;99.90;;;;;;5097817;27;20289;-54
2023/04/17 09:30:04;;;;;;;17.35;15.52;;;13.90;99.90;;;;;;5096014;28;20047;-55
2023/04/17 09:32:31;;;;;;;18.73;16.05;;;14.30;99.90;;;;;;5097406;27;20862;-55
2023/04/17 09:35:00;;;;;;;18.38;16.13;;;14.40;99.90;;;;;;5096943;27;20463;-56
2023/04/17 09:37:43;;;;;;;18.05;15.55;;;15.00;99.90;;;;;;5095836;27;20123;-53
2023/04/17 09:40:10;;;;;;;17.65;14.70;;;15.30;99.90;;;;;;5095921;27;20155;-52
2023/04/17 09:42:59;;;;;;;18.92;15.38;;;15.50;99.90;;;;;;5096539;27;20059;-56
2023/04/17 09:45:32;;;;;;;17.40;14.35;;;15.50;99.90;;;;;;5095481;27;20094;-55
2023/04/17 09:47:59;;;;;;;17.48;14.90;;;15.50;99.90;;;;;;5094531;27;20058;-55
2023/04/17 09:50:26;;;;;;;17.20;13.75;;;15.70;99.90;;;;;;5095157;28;20081;-54
2023/04/17 09:52:55;;;;;;;18.85;14.18;;;15.70;99.90;;;;;;5077973;28;20528;-56
2023/04/17 09:55:23;;;;;;;18.05;13.35;;;15.50;99.90;;;;;;5096712;27;20110;-56
2023/04/17 09:57:51;;;;;;;18.85;13.30;;;15.40;99.90;;;;;;5094650;27;20419;-57
2023/04/17 10:00:22;;;;;;;15.15;12.07;;;15.40;99.90;;;;;;5095921;27;20041;-56
2023/04/17 10:02:52;;;;;;;16.63;11.50;;;15.40;99.90;;;;;;5095605;27;20071;-56
2023/04/17 10:05:19;;;;;;;13.40;11.15;;;15.30;99.90;;;;;;5096877;27;20050;-55
2023/04/17 10:07:46;;;;;;;14.35;11.80;;;15.30;99.90;;;;;;5095394;27;20112;-56
2023/04/17 10:10:25;;;;;;;15.23;12.65;;;15.10;99.90;;;;;;5095757;27;20067;-54
2023/04/17 10:12:54;;;;;;;14.38;11.43;;;15.10;99.90;;;;;;5096135;27;20568;-57
2023/04/17 10:15:22;;;;;;;17.10;12.73;;;14.80;99.90;;;;;;5094251;27;20320;-55
2023/04/17 10:17:48;;;;;;;15.70;12.60;;;14.80;99.90;;;;;;5076922;28;20126;-57
2023/04/17 10:20:16;;;;;;;16.10;11.95;;;14.70;99.90;;;;;;5095302;27;20617;-57
2023/04/17 10:22:48;;;;;;;15.88;12.15;;;14.80;99.90;;;;;;5096383;27;20058;-60
2023/04/17 10:25:13;;;;;;;16.17;12.82;;;15.00;99.90;;;;;;5095635;28;20051;-56
2023/04/17 10:27:39;;;;;;;14.23;12.65;;;15.20;99.90;;;;;;5095351;27;20036;-56
2023/04/17 10:30:11;;;;;;;17.02;13.07;;;14.90;99.90;;;;;;5095621;27;20035;-54
2023/04/17 10:32:38;;;;;;;19.38;12.68;;;14.90;99.90;;;;;;5095864;27;20096;-56
2023/04/17 10:35:16;;;;;;;16.48;12.05;;;15.00;99.90;;;;;;5095543;27;20048;-56
2023/04/17 10:37:51;;;;;;;13.85;12.15;;;14.90;99.90;;;;;;5096388;27;20118;-56
2023/04/17 10:40:21;;;;;;;17.55;12.82;;;14.80;99.90;;;;;;5096170;27;20701;-56
2023/04/17 10:43:06;;;;;;;16.92;11.63;;;15.10;99.90;;;;;;5096565;27;20082;-56
2023/04/17 10:46:01;;;;;;;14.32;12.50;;;15.10;99.90;;;;;;5095970;27;20051;-56
2023/04/17 10:48:35;;;;;;;20.58;12.77;;;15.30;99.90;;;;;;5095738;28;20048;-55
2023/04/17 10:51:25;;;;;;;16.10;12.10;;;15.50;99.90;;;;;;5094224;27;20040;-56
2023/04/17 10:54:04;;;;;;;17.48;13.15;;;15.70;99.90;;;;;;5083711;27;20063;-54
2023/04/17 10:56:47;;;;;;;16.05;12.55;;;15.30;99.90;;;;;;5077085;27;20094;-55
2023/04/17 10:59:15;;;;;;;17.27;12.40;;;15.30;99.90;;;;;;5094991;27;20543;-55
2023/04/17 11:01:46;;;;;;;15.05;12.38;;;15.20;99.90;;;;;;5083049;28;20167;-55
2023/04/17 11:04:22;;;;;;;15.55;12.35;;;15.70;99.90;;;;;;5094041;27;21757;-54
2023/04/17 11:06:48;;;;;;;17.23;13.55;;;15.80;99.90;;;;;;5094355;27;20096;-56
2023/04/17 11:09:14;;;;;;;16.42;12.75;;;15.70;99.90;;;;;;5092837;27;20457;-55
2023/04/17 11:11:42;;;;;;;16.27;12.80;;;16.10;99.90;;;;;;5094417;27;20130;-55
2023/04/17 11:14:10;;;;;;;15.60;13.05;;;15.90;99.90;;;;;;5094252;27;20104;-56
2023/04/17 11:16:40;;;;;;;17.27;13.20;;;16.20;99.90;;;;;;5075232;28;20189;-55
2023/04/17 11:19:11;;;;;;;17.45;12.98;;;16.00;99.90;;;;;;5093124;27;20050;-56
2023/04/17 11:21:48;;;;;;;17.05;13.25;;;16.20;99.90;;;;;;5093939;27;20108;-55
2023/04/17 11:24:25;;;;;;;15.63;13.13;;;16.00;99.90;;;;;;5094588;27;20043;-54
2023/04/17 11:26:51;;;;;;;15.18;11.95;;;16.00;99.90;;;;;;5092726;27;20055;-55
2023/04/17 11:29:22;;;;;;;22.55;13.93;;;15.70;99.90;;;;;;5093469;27;20397;-54
2023/04/17 11:31:52;;;;;;;19.00;14.20;;;15.50;99.90;;;;;;5094203;27;20457;-55
2023/04/17 11:34:19;;;;;;;19.42;14.75;;;15.20;99.90;;;;;;5095438;27;20105;-55
2023/04/17 11:36:53;;;;;;;17.55;13.82;;;15.10;99.90;;;;;;5090852;27;20047;-55
2023/04/17 11:39:21;;;;;;;17.52;14.48;;;15.20;99.90;;;;;;5091657;28;20047;-56
2023/04/17 11:41:48;;;;;;;20.23;13.25;;;15.30;99.90;;;;;;5074580;28;20039;-56
2023/04/17 11:44:15;;;;;;;19.80;14.93;;;15.20;99.90;;;;;;5092430;27;20123;-54
2023/04/17 11:46:41;;;;;;;16.60;13.63;;;15.40;99.90;;;;;;5092776;28;20047;-55
2023/04/17 11:49:07;;;;;;;19.05;12.43;;;15.10;99.90;;;;;;5093268;28;20093;-56
2023/04/17 11:51:33;;;;;;;18.73;14.38;;;15.40;99.90;;;;;;5075646;28;20158;-56
2023/04/17 11:54:00;;;;;;;20.10;13.90;;;15.30;99.90;;;;;;5095012;28;20093;-56
2023/04/17 11:56:28;;;;;;;20.48;13.70;;;14.70;99.90;;;;;;5093385;27;20043;-56
2023/04/17 11:58:58;;;;;;;19.45;15.00;;;15.70;99.90;;;;;;5093807;27;20615;-55
2023/04/17 12:01:26;;;;;;;18.90;14.13;;;15.60;99.90;;;;;;5093928;28;20039;-54
2023/04/17 12:03:56;;;;;;;20.42;14.57;;;15.50;99.90;;;;;;5094458;27;20066;-57
2023/04/17 12:06:26;;;;;;;19.05;14.77;;;15.30;99.90;;;;;;5094098;27;20046;-56
2023/04/17 12:08:54;;;;;;;18.80;14.70;;;15.50;99.90;;;;;;5075018;28;20044;-56
2023/04/17 12:11:28;;;;;;;19.58;15.65;;;15.80;99.90;;;;;;5075808;28;20243;-54
2023/04/17 12:13:54;;;;;;;20.05;15.70;;;15.70;99.90;;;;;;5093285;28;20067;-56
2023/04/17 12:16:23;;;;;;;18.73;15.35;;;15.50;99.90;;;;;;5094308;28;20508;-55
2023/04/17 12:18:49;;;;;;;20.10;15.68;;;15.50;99.90;;;;;;5055989;28;20389;-56
2023/04/17 12:21:14;;;;;;;20.63;16.65;;;15.50;99.90;;;;;;5091019;28;20035;-55
2023/04/17 12:23:40;;;;;;;20.13;15.88;;;15.40;99.90;;;;;;5092037;28;20044;-55
2023/04/17 12:26:07;;;;;;;18.83;15.23;;;14.90;99.90;;;;;;5092550;28;20039;-56
2023/04/17 12:28:32;;;;;;;20.00;15.27;;;15.00;99.90;;;;;;5091838;28;20047;-56
2023/04/17 12:30:58;;;;;;;17.60;13.95;;;14.90;99.90;;;;;;5091075;28;20039;-55
2023/04/17 12:33:24;;;;;;;18.25;14.35;;;14.90;99.90;;;;;;5091722;28;20046;-55